Kezdőlap
METAR-TAF:

METAR-TAF

Repülőterek :

Airlake Airport

Minneapolis-Lakeville, Minnesota, Amerikai Egyesült Államok

földrajzi szélesség: 44-37-40N, földrajzi hosszúság: 093-13-41W, magasság: 293 m

Jelenlegi meteorológiai megfigyelések

A jelentés 11 perccel ezelõtt készült, 08:55 UTC
Délkeleti szél 4 kt
Hőmérséklet 20°C
Páratartalom 94%
Légköri nyomás 1011 hPa
Látótávolság: 2.4 km
Szakadozott felhőzet 500 lábon
Szakadozott felhőzet 2700 lábon
Borult 6000 lábon
zivatar, erőteljes esõzés

METAR: KLVN 100855Z AUTO 13004KT 1 1/2SM +TSRA BKN005 BKN027 OVC060 20/19 A2986 RMK AO2 VIS 1/2V5 LTG DSNT ALQDS

Idő: 04:06 (09:06 UTC)


TAF: hiányzik

Meteorológiai megfigyelések és előrejelzések több, mint 4000 repülőtéren (METAR és TAF jelentéseket).

A térképen piros és sárga pontok jelzik az elérhető meteorológiai állomásokat.

Mozgassa az egeret a pont fölött, hogy megjelenjen az állomás neve.

Azután kattintson az időjárási megfigyelések és előrejelzések megtekintéséhez.

A térkép megváltoztatása: kattintson a fekete keresztel jelölt zöld gombra ráközelítéshez, a vonallal jelölt zöld gombra távolításhoz, vagy a zöld nyilakra a szomszédos térképek eléréséhez.


METAR-TAF: